createdAt,value
2018-08-07T21:26:13.418Z,53.60
2018-08-07T21:28:41.051Z,53.23
2018-08-07T21:31:08.733Z,53.87
2018-08-07T21:33:36.294Z,54.15
2018-08-07T21:36:04.284Z,53.28
2018-08-07T21:38:31.667Z,54.13
2018-08-07T21:40:59.057Z,55.12
2018-08-07T21:43:26.421Z,55.58
2018-08-07T21:45:53.736Z,56.25
2018-08-07T21:48:21.086Z,56.93
2018-08-07T21:50:48.733Z,57.59
2018-08-07T21:53:16.183Z,57.99
2018-08-07T21:55:44.419Z,58.24
2018-08-07T21:58:11.843Z,56.80
2018-08-07T22:00:44.885Z,56.69
2018-08-07T22:03:12.299Z,56.21
2018-08-07T22:05:39.830Z,59.01
2018-08-07T22:08:08.010Z,60.25
2018-08-07T22:10:35.417Z,62.62
2018-08-07T22:13:02.836Z,63.14
2018-08-07T22:15:30.187Z,64.52
2018-08-07T22:17:57.659Z,65.45
2018-08-07T22:20:25.351Z,65.90
2018-08-07T22:22:52.899Z,66.90
2018-08-07T22:25:20.300Z,68.31
2018-08-07T22:27:47.767Z,69.35
2018-08-07T22:30:17.625Z,75.40
2018-08-07T22:32:45.009Z,77.82
2018-08-07T22:35:12.346Z,76.84
2018-08-07T22:37:39.829Z,80.71
2018-08-07T22:40:07.511Z,84.92
2018-08-07T22:42:35.970Z,84.97
2018-08-07T22:45:04.235Z,89.15
2018-08-07T22:47:33.250Z,90.76
2018-08-07T22:50:00.845Z,91.58
2018-08-07T22:52:28.346Z,92.14
2018-08-07T22:54:55.830Z,94.42
2018-08-07T22:57:23.149Z,95.31
2018-08-07T22:59:50.638Z,96.32
2018-08-07T23:02:17.976Z,96.82
2018-08-07T23:04:45.440Z,96.98
2018-08-07T23:07:12.894Z,97.90
2018-08-07T23:09:40.330Z,97.81
2018-08-07T23:12:07.721Z,97.03
2018-08-07T23:14:35.118Z,98.47
2018-08-07T23:17:02.500Z,98.21
2018-08-07T23:19:29.952Z,98.49
2018-08-07T23:21:57.381Z,98.96
2018-08-07T23:24:24.881Z,99.53
2018-08-07T23:26:52.356Z,100.00
2018-08-07T23:29:19.671Z,100.00
2018-08-07T23:31:47.602Z,99.79
2018-08-07T23:34:14.931Z,98.66
2018-08-07T23:36:42.257Z,99.41
2018-08-07T23:39:10.144Z,99.71
2018-08-07T23:41:37.512Z,99.55
2018-08-07T23:44:04.877Z,99.51
2018-08-07T23:46:32.305Z,99.20
2018-08-07T23:48:59.721Z,99.31
2018-08-07T23:51:27.077Z,99.81
2018-08-07T23:53:54.704Z,100.00
2018-08-07T23:56:21.996Z,100.00
2018-08-07T23:58:49.582Z,100.00
